createdAt,value
2023-05-13T00:00:00.065Z,0.00
2023-05-13T00:01:00.074Z,0.00
2023-05-13T00:02:00.048Z,0.00
2023-05-13T00:03:00.109Z,0.00
2023-05-13T00:04:00.015Z,0.00
2023-05-13T00:05:00.001Z,0.00
2023-05-13T00:06:00.031Z,0.00
2023-05-13T00:06:59.978Z,0.00
2023-05-13T00:07:59.978Z,0.00
2023-05-13T00:08:59.962Z,0.00
2023-05-13T00:09:59.947Z,0.00
2023-05-13T00:10:59.936Z,0.00
2023-05-13T00:11:59.940Z,0.00
2023-05-13T00:12:59.913Z,0.00
2023-05-13T00:13:59.913Z,0.00
2023-05-13T00:14:59.893Z,0.00
2023-05-13T00:15:59.901Z,0.00
2023-05-13T00:16:59.902Z,0.00
2023-05-13T00:17:59.935Z,0.00
2023-05-13T00:18:59.945Z,0.00
2023-05-13T00:19:59.844Z,0.00
2023-05-13T00:20:59.831Z,0.00
2023-05-13T00:21:59.830Z,0.00
2023-05-13T00:22:59.861Z,0.00
2023-05-13T00:23:59.875Z,0.00
2023-05-13T00:24:59.919Z,0.00
2023-05-13T00:25:59.882Z,0.00
2023-05-13T00:26:59.867Z,0.00
2023-05-13T00:27:59.867Z,0.00
2023-05-13T00:28:59.886Z,0.00
2023-05-13T00:29:59.920Z,0.00
2023-05-13T00:30:59.778Z,0.00
2023-05-13T00:31:59.778Z,0.00
2023-05-13T00:32:59.748Z,0.00
2023-05-13T00:33:59.697Z,0.00
2023-05-13T00:34:59.706Z,0.00
2023-05-13T00:35:59.667Z,0.00
2023-05-13T00:36:59.654Z,0.00
2023-05-13T00:37:59.652Z,0.00
2023-05-13T00:38:59.633Z,0.00
2023-05-13T00:39:59.633Z,0.00
2023-05-13T00:40:59.610Z,0.00
2023-05-13T00:41:59.633Z,0.00
2023-05-13T00:42:59.595Z,0.00
2023-05-13T00:43:59.579Z,0.00
2023-05-13T00:44:59.600Z,0.00
2023-05-13T00:45:59.600Z,0.00
2023-05-13T00:46:59.544Z,0.00
2023-05-13T00:47:59.586Z,0.00
2023-05-13T00:48:59.551Z,0.00
2023-05-13T00:49:59.533Z,0.00
2023-05-13T00:50:59.513Z,0.00
2023-05-13T00:51:59.492Z,0.00
2023-05-13T00:52:59.480Z,0.00
2023-05-13T00:53:59.472Z,0.00
2023-05-13T00:54:59.458Z,0.00
2023-05-13T00:55:59.456Z,0.00
2023-05-13T00:56:59.474Z,0.00
2023-05-13T00:57:59.426Z,0.00
2023-05-13T00:58:59.418Z,0.00
2023-05-13T00:59:59.404Z,0.00
2023-05-13T01:00:59.419Z,0.00
2023-05-13T01:01:59.392Z,0.00
2023-05-13T01:02:59.502Z,0.00
2023-05-13T01:03:59.358Z,0.00
2023-05-13T01:04:59.380Z,0.00
2023-05-13T01:05:59.349Z,0.00
2023-05-13T01:06:59.326Z,0.00
2023-05-13T01:07:59.319Z,0.00
2023-05-13T01:08:59.303Z,0.00
2023-05-13T01:09:59.292Z,0.00
2023-05-13T01:10:59.276Z,0.00
2023-05-13T01:11:59.268Z,0.00
2023-05-13T01:12:59.254Z,0.00
2023-05-13T01:13:59.244Z,0.00
2023-05-13T01:14:59.235Z,0.00
2023-05-13T01:15:59.226Z,0.00
2023-05-13T01:16:59.375Z,0.00
2023-05-13T01:17:59.228Z,0.00
2023-05-13T01:18:59.260Z,0.00
2023-05-13T01:19:59.177Z,0.00
2023-05-13T01:20:59.191Z,0.00
2023-05-13T01:21:59.153Z,0.00
2023-05-13T01:22:59.145Z,0.00
2023-05-13T01:23:59.191Z,0.00
2023-05-13T01:24:59.119Z,0.00
2023-05-13T01:25:59.114Z,0.00
2023-05-13T01:26:59.096Z,0.00
2023-05-13T01:27:59.096Z,0.00
2023-05-13T01:28:59.112Z,0.00
2023-05-13T01:29:59.064Z,0.00
2023-05-13T01:30:59.089Z,0.00
2023-05-13T01:31:59.059Z,0.00
2023-05-13T01:32:59.087Z,0.00
2023-05-13T01:33:59.023Z,0.00
2023-05-13T01:34:59.005Z,0.00
2023-05-13T01:35:58.998Z,0.00
2023-05-13T01:36:59.009Z,0.00
2023-05-13T01:37:58.972Z,0.00
2023-05-13T01:38:58.962Z,0.00
2023-05-13T01:39:58.947Z,0.00
2023-05-13T01:40:58.939Z,0.00
2023-05-13T01:41:58.937Z,0.00
2023-05-13T01:42:58.913Z,0.00
2023-05-13T01:43:58.905Z,0.00
2023-05-13T01:44:58.942Z,0.00
2023-05-13T01:45:58.895Z,0.00
2023-05-13T01:46:58.952Z,0.00
2023-05-13T01:47:58.924Z,0.00
2023-05-13T01:48:58.864Z,0.00
2023-05-13T01:49:58.843Z,0.00
2023-05-13T01:50:58.827Z,0.00
2023-05-13T01:51:58.815Z,0.00
2023-05-13T01:52:58.836Z,0.00
2023-05-13T01:53:58.798Z,0.00
2023-05-13T01:54:58.779Z,0.00
2023-05-13T01:55:58.764Z,0.00
2023-05-13T01:56:58.760Z,0.00
2023-05-13T01:57:58.754Z,0.00
2023-05-13T01:58:58.733Z,0.00
2023-05-13T01:59:58.722Z,0.00
2023-05-13T02:00:58.716Z,0.00
2023-05-13T02:01:58.725Z,0.00
2023-05-13T02:02:58.777Z,0.00
2023-05-13T02:03:58.759Z,0.00
2023-05-13T02:04:58.674Z,0.00
2023-05-13T02:05:58.676Z,0.00
2023-05-13T02:06:58.647Z,0.00
2023-05-13T02:07:58.628Z,0.00
2023-05-13T02:08:58.640Z,0.00
2023-05-13T02:09:58.612Z,0.00
2023-05-13T02:10:58.615Z,0.00
2023-05-13T02:11:58.590Z,0.00
2023-05-13T02:12:58.580Z,0.00
2023-05-13T02:13:58.564Z,0.00
2023-05-13T02:14:58.553Z,0.00
2023-05-13T02:15:58.617Z,0.00
2023-05-13T02:16:58.567Z,0.00
2023-05-13T02:17:58.546Z,0.00
2023-05-13T02:18:58.575Z,0.00
2023-05-13T02:19:58.510Z,0.00
2023-05-13T02:20:58.492Z,0.00
2023-05-13T02:21:58.472Z,0.00
2023-05-13T02:22:58.472Z,0.00
2023-05-13T02:23:58.468Z,0.00
2023-05-13T02:24:58.472Z,0.00
2023-05-13T02:25:58.429Z,0.00
2023-05-13T02:26:58.422Z,0.00
2023-05-13T02:27:58.427Z,0.00
2023-05-13T02:28:58.399Z,0.00
2023-05-13T02:29:58.384Z,0.00
2023-05-13T02:30:58.386Z,0.00
2023-05-13T02:31:58.409Z,0.00
2023-05-13T02:32:58.380Z,0.00
2023-05-13T02:33:58.349Z,0.00
2023-05-13T02:34:58.335Z,0.00
2023-05-13T02:35:58.317Z,0.00
2023-05-13T02:36:58.309Z,0.00
2023-05-13T02:37:58.331Z,0.00
2023-05-13T02:38:58.287Z,0.00
2023-05-13T02:39:58.274Z,0.00
2023-05-13T02:40:58.288Z,0.00
2023-05-13T02:41:58.252Z,0.00
2023-05-13T02:42:58.240Z,0.00
2023-05-13T02:43:58.230Z,0.00
2023-05-13T02:44:58.220Z,4.00
2023-05-13T02:45:58.215Z,4.00
2023-05-13T02:46:58.197Z,0.00
2023-05-13T02:47:58.218Z,0.00
2023-05-13T02:48:58.179Z,0.00
2023-05-13T02:49:58.184Z,4.00
2023-05-13T02:50:58.151Z,4.00
2023-05-13T02:51:58.136Z,4.00
2023-05-13T02:52:58.133Z,4.00
2023-05-13T02:53:58.122Z,8.00
2023-05-13T02:54:58.200Z,4.00
2023-05-13T02:55:58.115Z,4.00
2023-05-13T02:56:58.109Z,8.00
2023-05-13T02:57:58.073Z,8.00
2023-05-13T02:58:58.209Z,8.00
2023-05-13T02:59:58.052Z,8.00
2023-05-13T03:00:58.059Z,12.00
2023-05-13T03:01:58.033Z,12.00
2023-05-13T03:02:58.153Z,16.00
2023-05-13T03:03:58.007Z,16.00
2023-05-13T03:04:58.002Z,20.00
2023-05-13T03:05:57.980Z,20.00
2023-05-13T03:06:57.974Z,24.00
2023-05-13T03:07:57.969Z,28.00
2023-05-13T03:08:57.953Z,32.00
2023-05-13T03:09:57.942Z,36.00
2023-05-13T03:10:57.929Z,40.00
2023-05-13T03:11:57.916Z,44.00
2023-05-13T03:12:57.926Z,52.00
2023-05-13T03:13:57.895Z,60.00
2023-05-13T03:14:57.882Z,68.00
2023-05-13T03:15:57.891Z,76.00
2023-05-13T03:16:57.860Z,84.00
2023-05-13T03:17:57.929Z,96.00
2023-05-13T03:18:57.922Z,104.00
2023-05-13T03:19:57.831Z,116.00
2023-05-13T03:20:57.812Z,128.00
2023-05-13T03:21:57.802Z,144.00
2023-05-13T03:22:57.792Z,156.00
2023-05-13T03:23:57.778Z,172.00
2023-05-13T03:24:57.772Z,192.00
2023-05-13T03:25:57.755Z,208.00
2023-05-13T03:26:57.749Z,228.00
2023-05-13T03:27:57.739Z,248.00
2023-05-13T03:28:57.751Z,268.00
2023-05-13T03:29:57.713Z,288.00
2023-05-13T03:30:57.710Z,316.00
2023-05-13T03:31:57.684Z,336.00
2023-05-13T03:32:57.698Z,364.00
2023-05-13T03:33:57.662Z,392.00
2023-05-13T03:34:57.656Z,420.00
2023-05-13T03:35:57.651Z,448.00
2023-05-13T03:36:57.663Z,480.00
2023-05-13T03:37:57.641Z,516.00
2023-05-13T03:38:57.615Z,548.00
2023-05-13T03:39:57.597Z,584.00
2023-05-13T03:40:57.588Z,620.00
2023-05-13T03:41:57.572Z,652.00
2023-05-13T03:42:57.565Z,692.00
2023-05-13T03:43:57.759Z,728.00
2023-05-13T03:44:57.564Z,768.00
2023-05-13T03:45:57.534Z,816.00
2023-05-13T03:46:57.534Z,856.00
2023-05-13T03:47:57.732Z,900.00
2023-05-13T03:48:57.495Z,940.00
2023-05-13T03:49:57.501Z,988.00
2023-05-13T03:50:57.476Z,1036.00
2023-05-13T03:51:57.461Z,1080.00
2023-05-13T03:52:57.473Z,1132.00
2023-05-13T03:53:57.437Z,1180.00
2023-05-13T03:54:57.433Z,1228.00
2023-05-13T03:55:57.421Z,1280.00
2023-05-13T03:56:57.408Z,1332.00
2023-05-13T03:57:57.392Z,1380.00
2023-05-13T03:58:57.389Z,1432.00
2023-05-13T03:59:57.369Z,1484.00
2023-05-13T04:00:57.390Z,1540.00
2023-05-13T04:01:57.418Z,1592.00
2023-05-13T04:02:57.428Z,1644.00
2023-05-13T04:03:57.440Z,1696.00
2023-05-13T04:04:57.346Z,1752.00
2023-05-13T04:05:57.303Z,1808.00
2023-05-13T04:06:57.296Z,1860.00
2023-05-13T04:07:57.284Z,1912.00
2023-05-13T04:08:57.277Z,1968.00
2023-05-13T04:09:57.260Z,2020.00
2023-05-13T04:10:57.253Z,2076.00
2023-05-13T04:11:57.241Z,2132.00
2023-05-13T04:12:57.233Z,2188.00
2023-05-13T04:13:57.217Z,2248.00
2023-05-13T04:14:57.203Z,2304.00
2023-05-13T04:15:57.190Z,2368.00
2023-05-13T04:16:57.270Z,2428.00
2023-05-13T04:17:57.242Z,2488.00
2023-05-13T04:18:57.210Z,2548.00
2023-05-13T04:19:57.150Z,2604.00
2023-05-13T04:20:57.138Z,2664.00
2023-05-13T04:21:57.125Z,2724.00
2023-05-13T04:22:57.121Z,2784.00
2023-05-13T04:23:57.175Z,2852.00
2023-05-13T04:24:57.099Z,2920.00
2023-05-13T04:25:57.086Z,2972.00
2023-05-13T04:26:58.546Z,3008.00
2023-05-13T04:27:57.071Z,3060.00
2023-05-13T04:28:57.062Z,3116.00
2023-05-13T04:29:57.056Z,3176.00
2023-05-13T04:30:57.024Z,3232.00
2023-05-13T04:31:57.046Z,3304.00
2023-05-13T04:32:57.082Z,3608.00
2023-05-13T04:33:56.996Z,4436.00
2023-05-13T04:34:56.980Z,4916.00
2023-05-13T04:35:56.976Z,5016.00
2023-05-13T04:36:57.056Z,5192.00
2023-05-13T04:37:56.943Z,5328.00
2023-05-13T04:38:56.933Z,5464.00
2023-05-13T04:39:56.938Z,5588.00
2023-05-13T04:40:56.910Z,5624.00
2023-05-13T04:41:56.901Z,5536.00
2023-05-13T04:42:56.892Z,5596.00
2023-05-13T04:43:56.876Z,5928.00
2023-05-13T04:44:56.872Z,6288.00
2023-05-13T04:45:56.874Z,6444.00
2023-05-13T04:46:56.852Z,6600.00
2023-05-13T04:47:58.474Z,6772.00
2023-05-13T04:48:56.870Z,6960.00
2023-05-13T04:49:56.809Z,7152.00
2023-05-13T04:50:56.835Z,7336.00
2023-05-13T04:51:56.791Z,7460.00
2023-05-13T04:52:56.827Z,7560.00
2023-05-13T04:53:56.769Z,7680.00
2023-05-13T04:54:56.756Z,7780.00
2023-05-13T04:55:56.757Z,7924.00
2023-05-13T04:56:56.730Z,8048.00
2023-05-13T04:57:56.726Z,8164.00
2023-05-13T04:58:56.746Z,8352.00
2023-05-13T04:59:56.741Z,8524.00
2023-05-13T05:00:56.693Z,8688.00
2023-05-13T05:01:56.709Z,8824.00
2023-05-13T05:02:56.724Z,8972.00
2023-05-13T05:03:56.661Z,9140.00
2023-05-13T05:04:56.707Z,9316.00
2023-05-13T05:05:56.629Z,9508.00
2023-05-13T05:06:56.617Z,9660.00
2023-05-13T05:07:56.604Z,9792.00
2023-05-13T05:08:56.597Z,9968.00
2023-05-13T05:09:56.599Z,10100.00
2023-05-13T05:10:56.671Z,10244.00
2023-05-13T05:11:56.564Z,10384.00
2023-05-13T05:12:56.553Z,10568.00
2023-05-13T05:13:56.542Z,10740.00
2023-05-13T05:14:56.532Z,10924.00
2023-05-13T05:15:56.519Z,11084.00
2023-05-13T05:16:56.550Z,11260.00
2023-05-13T05:17:56.638Z,11424.00
2023-05-13T05:18:56.598Z,11632.00
2023-05-13T05:19:56.486Z,11832.00
2023-05-13T05:20:56.489Z,12932.00
2023-05-13T05:21:56.487Z,13344.00
2023-05-13T05:22:57.014Z,11640.00
2023-05-13T05:23:56.447Z,10176.00
2023-05-13T05:24:56.427Z,8744.00
2023-05-13T05:26:07.877Z,9732.00
2023-05-13T05:26:57.437Z,9492.00
2023-05-13T05:27:56.388Z,9640.00
2023-05-13T05:28:56.382Z,12336.00
2023-05-13T05:29:56.376Z,14368.00
2023-05-13T05:30:56.352Z,14176.00
2023-05-13T05:31:56.464Z,12000.00
2023-05-13T05:32:56.444Z,10568.00
2023-05-13T05:33:56.336Z,11412.00
2023-05-13T05:34:56.398Z,10244.00
2023-05-13T05:35:56.304Z,12388.00
2023-05-13T05:36:56.314Z,14816.00
2023-05-13T05:37:56.271Z,15360.00
2023-05-13T05:38:56.268Z,15552.00
2023-05-13T05:39:56.253Z,15712.00
2023-05-13T05:40:56.259Z,15968.00
2023-05-13T05:41:56.231Z,16160.00
2023-05-13T05:42:56.217Z,16352.00
2023-05-13T05:43:56.224Z,16512.00
2023-05-13T05:44:56.202Z,16672.00
2023-05-13T05:45:56.193Z,16832.00
2023-05-13T05:46:56.292Z,17024.00
2023-05-13T05:47:56.194Z,17344.00
2023-05-13T05:48:56.153Z,17568.00
2023-05-13T05:49:56.144Z,17632.00
2023-05-13T05:50:56.128Z,17856.00
2023-05-13T05:51:56.125Z,18240.00
2023-05-13T05:52:56.128Z,18144.00
2023-05-13T05:53:56.098Z,18304.00
2023-05-13T05:54:56.085Z,18464.00
2023-05-13T05:55:56.075Z,18592.00
2023-05-13T05:56:56.060Z,18752.00
2023-05-13T05:57:56.051Z,14772.00
2023-05-13T05:58:56.089Z,9044.00
2023-05-13T05:59:56.102Z,7476.00
2023-05-13T06:00:56.016Z,7428.00
2023-05-13T06:01:56.043Z,7404.00
2023-05-13T06:02:56.075Z,7224.00
2023-05-13T06:03:56.026Z,7240.00
2023-05-13T06:04:55.971Z,7260.00
2023-05-13T06:05:55.968Z,7292.00
2023-05-13T06:06:55.983Z,7328.00
2023-05-13T06:07:55.946Z,7364.00
2023-05-13T06:08:55.959Z,7464.00
2023-05-13T06:09:55.928Z,7432.00
2023-05-13T06:10:55.929Z,7576.00
2023-05-13T06:11:55.911Z,8188.00
2023-05-13T06:12:55.904Z,8044.00
2023-05-13T06:13:55.878Z,7644.00
2023-05-13T06:14:55.864Z,8752.00
2023-05-13T06:15:55.890Z,8756.00
2023-05-13T06:16:56.055Z,8048.00
2023-05-13T06:17:55.868Z,8352.00
2023-05-13T06:18:55.882Z,8208.00
2023-05-13T06:19:55.810Z,7708.00
2023-05-13T06:20:55.822Z,7652.00
2023-05-13T06:21:55.795Z,7684.00
2023-05-13T06:22:55.772Z,7728.00
2023-05-13T06:23:55.779Z,7736.00
2023-05-13T06:24:55.909Z,8316.00
2023-05-13T06:25:55.832Z,8616.00
2023-05-13T06:26:55.734Z,8220.00
2023-05-13T06:27:55.722Z,8604.00
2023-05-13T06:28:55.704Z,7904.00
2023-05-13T06:29:55.716Z,7932.00
2023-05-13T06:30:55.728Z,8100.00
2023-05-13T06:31:55.685Z,7820.00
2023-05-13T06:33:01.682Z,8112.00
2023-05-13T06:33:56.686Z,9788.00
2023-05-13T06:34:56.124Z,9084.00
2023-05-13T06:35:55.632Z,12208.00
2023-05-13T06:36:55.643Z,11312.00
2023-05-13T06:37:55.658Z,15632.00
2023-05-13T06:38:55.592Z,19328.00
2023-05-13T06:39:55.584Z,15532.00
2023-05-13T06:40:55.595Z,15412.00
2023-05-13T06:41:55.571Z,11368.00
2023-05-13T06:42:55.546Z,9516.00
2023-05-13T06:43:55.544Z,9956.00
2023-05-13T06:44:55.525Z,13044.00
2023-05-13T06:45:55.552Z,17152.00
2023-05-13T06:46:55.584Z,18016.00
2023-05-13T06:47:55.519Z,17344.00
2023-05-13T06:48:55.517Z,26336.00
2023-05-13T06:49:55.578Z,29056.00
2023-05-13T06:50:55.464Z,32096.00
2023-05-13T06:51:55.446Z,32832.00
2023-05-13T06:52:55.432Z,33472.00
2023-05-13T06:53:55.433Z,34368.00
2023-05-13T06:54:55.412Z,35008.00
2023-05-13T06:55:55.401Z,36256.00
2023-05-13T06:56:55.415Z,36928.00
2023-05-13T06:57:55.390Z,29408.00
2023-05-13T06:58:55.464Z,30336.00
2023-05-13T06:59:55.362Z,18976.00
2023-05-13T07:00:55.363Z,23488.00
2023-05-13T07:01:55.339Z,23232.00
2023-05-13T07:02:55.363Z,31904.00
2023-05-13T07:03:55.384Z,32832.00
2023-05-13T07:04:55.335Z,28544.00
2023-05-13T07:05:55.291Z,21536.00
2023-05-13T07:06:55.294Z,33696.00
2023-05-13T07:07:55.283Z,38464.00
2023-05-13T07:08:55.309Z,33664.00
2023-05-13T07:09:55.257Z,40032.00
2023-05-13T07:10:55.234Z,41152.00
2023-05-13T07:11:55.223Z,41408.00
2023-05-13T07:12:55.241Z,41504.00
2023-05-13T07:13:55.198Z,41216.00
2023-05-13T07:14:55.196Z,40384.00
2023-05-13T07:15:55.180Z,41344.00
2023-05-13T07:16:55.214Z,35328.00
2023-05-13T07:17:55.194Z,41216.00
2023-05-13T07:18:55.210Z,29344.00
2023-05-13T07:19:55.176Z,45280.00
2023-05-13T07:20:55.133Z,44352.00
2023-05-13T07:21:55.189Z,43648.00
2023-05-13T07:22:55.108Z,43584.00
2023-05-13T07:23:55.103Z,43520.00
2023-05-13T07:24:55.092Z,43680.00
2023-05-13T07:25:55.085Z,44160.00
2023-05-13T07:26:55.057Z,44128.00
2023-05-13T07:27:55.163Z,44608.00
2023-05-13T07:28:55.120Z,45024.00
2023-05-13T07:29:55.216Z,45728.00
2023-05-13T07:30:55.110Z,47168.00
2023-05-13T07:31:55.196Z,46976.00
2023-05-13T07:32:55.187Z,47168.00
2023-05-13T07:33:55.103Z,47712.00
2023-05-13T07:34:55.061Z,47808.00
2023-05-13T07:35:54.980Z,47808.00
2023-05-13T07:36:54.944Z,46880.00
2023-05-13T07:37:54.955Z,46656.00
2023-05-13T07:38:55.362Z,46048.00
2023-05-13T07:39:54.948Z,45984.00
2023-05-13T07:40:54.926Z,45504.00
2023-05-13T07:41:54.901Z,45824.00
2023-05-13T07:42:54.894Z,46144.00
2023-05-13T07:43:54.876Z,46592.00
2023-05-13T07:44:54.883Z,47840.00
2023-05-13T07:45:54.852Z,48288.00
2023-05-13T07:46:54.905Z,48320.00
2023-05-13T07:47:55.076Z,48896.00
2023-05-13T07:48:54.866Z,49376.00
2023-05-13T07:49:54.834Z,49376.00
2023-05-13T07:50:54.798Z,50112.00
2023-05-13T07:51:54.835Z,50624.00
2023-05-13T07:52:54.781Z,50816.00
2023-05-13T07:53:54.768Z,51808.00
2023-05-13T07:54:54.761Z,51872.00
2023-05-13T07:55:54.749Z,51808.00
2023-05-13T07:56:54.734Z,52800.00
2023-05-13T07:57:54.829Z,54464.00
2023-05-13T07:58:54.717Z,57152.00
2023-05-13T07:59:54.740Z,55648.00
2023-05-13T08:00:54.735Z,54848.00
2023-05-13T08:01:54.690Z,55488.00
2023-05-13T08:02:54.733Z,55392.00
2023-05-13T08:03:54.919Z,56320.00
2023-05-13T08:04:54.717Z,55456.00
2023-05-13T08:05:54.642Z,56928.00
2023-05-13T08:06:54.634Z,58272.00
2023-05-13T08:07:54.617Z,60000.00
2023-05-13T08:08:54.615Z,59232.00
2023-05-13T08:09:54.608Z,58368.00
2023-05-13T08:10:54.602Z,57376.00
2023-05-13T08:11:54.611Z,57088.00
2023-05-13T08:12:54.571Z,57344.00
2023-05-13T08:13:54.582Z,55776.00
2023-05-13T08:14:54.548Z,55360.00
2023-05-13T08:15:54.544Z,55232.00
2023-05-13T08:16:54.888Z,57056.00
2023-05-13T08:17:54.619Z,55840.00
2023-05-13T08:18:54.549Z,55584.00
2023-05-13T08:19:54.493Z,55072.00
2023-05-13T08:20:54.476Z,56128.00
2023-05-13T08:21:54.584Z,55360.00
2023-05-13T08:22:54.484Z,56768.00
2023-05-13T08:23:54.447Z,57856.00
2023-05-13T08:24:54.452Z,57920.00
2023-05-13T08:25:54.427Z,61088.00
2023-05-13T08:26:54.425Z,60640.00
2023-05-13T08:27:54.405Z,64480.00
2023-05-13T08:28:55.141Z,65376.00
2023-05-13T08:29:54.388Z,66848.00
2023-05-13T08:30:54.375Z,65664.00
2023-05-13T08:31:54.381Z,65312.00
2023-05-13T08:32:54.440Z,63808.00
2023-05-13T08:33:54.351Z,63840.00
2023-05-13T08:34:54.350Z,66624.00
2023-05-13T08:35:54.332Z,61024.00
2023-05-13T08:36:54.316Z,62976.00
2023-05-13T08:37:54.307Z,62272.00
2023-05-13T08:38:54.301Z,60672.00
2023-05-13T08:39:54.290Z,61312.00
2023-05-13T08:40:54.297Z,58400.00
2023-05-13T08:41:54.265Z,58784.00
2023-05-13T08:42:54.542Z,58304.00
2023-05-13T08:43:54.267Z,58016.00
2023-05-13T08:44:54.233Z,57856.00
2023-05-13T08:45:54.233Z,58720.00
2023-05-13T08:46:54.212Z,58944.00
2023-05-13T08:47:54.229Z,60224.00
2023-05-13T08:48:54.217Z,59968.00
2023-05-13T08:49:54.187Z,58368.00
2023-05-13T08:50:54.191Z,58400.00
2023-05-13T08:51:54.164Z,58528.00
2023-05-13T08:52:54.184Z,58240.00
2023-05-13T08:53:54.176Z,59808.00
2023-05-13T08:54:54.131Z,59872.00
2023-05-13T08:55:54.129Z,62432.00
2023-05-13T08:56:54.108Z,66176.00
2023-05-13T08:57:54.104Z,64704.00
2023-05-13T08:58:54.084Z,69728.00
2023-05-13T08:59:54.081Z,74112.00
2023-05-13T09:00:54.162Z,73664.00
2023-05-13T09:01:54.100Z,81664.00
2023-05-13T09:02:54.069Z,81056.00
2023-05-13T09:03:54.048Z,79744.00
2023-05-13T09:04:54.129Z,83168.00
2023-05-13T09:05:54.146Z,85280.00
2023-05-13T09:06:54.012Z,84384.00
2023-05-13T09:07:54.002Z,83296.00
2023-05-13T09:08:53.982Z,87968.00
2023-05-13T09:09:53.981Z,83136.00
2023-05-13T09:10:53.965Z,77344.00
2023-05-13T09:11:53.960Z,82848.00
2023-05-13T09:12:53.956Z,80960.00
2023-05-13T09:13:54.264Z,83040.00
2023-05-13T09:14:53.939Z,86464.00
2023-05-13T09:15:53.947Z,85920.00
2023-05-13T09:16:53.903Z,88160.00
2023-05-13T09:17:54.101Z,86272.00
2023-05-13T09:18:54.019Z,85056.00
2023-05-13T09:19:53.917Z,86464.00
2023-05-13T09:20:53.906Z,81920.00
2023-05-13T09:21:53.873Z,79232.00
2023-05-13T09:22:53.853Z,83328.00
2023-05-13T09:23:53.830Z,81888.00
2023-05-13T09:24:53.839Z,80896.00
2023-05-13T09:25:53.821Z,83424.00
2023-05-13T09:26:53.800Z,86912.00
2023-05-13T09:27:53.790Z,86912.00
2023-05-13T09:28:53.774Z,82304.00
2023-05-13T09:29:53.787Z,86592.00
2023-05-13T09:30:53.824Z,84800.00
2023-05-13T09:31:53.761Z,78400.00
2023-05-13T09:32:53.775Z,82400.00
2023-05-13T09:33:53.728Z,83776.00
2023-05-13T09:34:53.713Z,86720.00
2023-05-13T09:35:53.848Z,87008.00
2023-05-13T09:36:53.724Z,81760.00
2023-05-13T09:37:53.690Z,88992.00
2023-05-13T09:38:53.670Z,89792.00
2023-05-13T09:39:53.664Z,86240.00
2023-05-13T09:40:53.645Z,86048.00
2023-05-13T09:41:53.647Z,86432.00
2023-05-13T09:42:53.626Z,83232.00
2023-05-13T09:43:53.616Z,81728.00
2023-05-13T09:44:53.614Z,87168.00
2023-05-13T09:45:53.598Z,84416.00
2023-05-13T09:46:53.601Z,86080.00
2023-05-13T09:47:53.667Z,85120.00
2023-05-13T09:48:55.763Z,90912.00
2023-05-13T09:49:53.564Z,92352.00
2023-05-13T09:50:53.750Z,81248.00
2023-05-13T09:51:53.545Z,88768.00
2023-05-13T09:52:53.839Z,92640.00
2023-05-13T09:53:53.516Z,88384.00
2023-05-13T09:54:53.511Z,90336.00
2023-05-13T09:55:53.506Z,88032.00
2023-05-13T09:56:53.488Z,91936.00
2023-05-13T09:57:53.481Z,93664.00
2023-05-13T09:58:53.567Z,87008.00
2023-05-13T09:59:53.460Z,90464.00
2023-05-13T10:00:53.536Z,91616.00
2023-05-13T10:01:53.576Z,87200.00
2023-05-13T10:02:53.556Z,88672.00
2023-05-13T10:03:53.467Z,86368.00
2023-05-13T10:04:53.576Z,92160.00
2023-05-13T10:05:53.403Z,95296.00
2023-05-13T10:06:53.394Z,85536.00
2023-05-13T10:07:53.388Z,85344.00
2023-05-13T10:08:53.403Z,91968.00
2023-05-13T10:09:53.372Z,95904.00
2023-05-13T10:10:53.361Z,89408.00
2023-05-13T10:11:53.349Z,87360.00
2023-05-13T10:12:53.478Z,101408.00
2023-05-13T10:13:53.343Z,101344.00
2023-05-13T10:14:53.417Z,89952.00
2023-05-13T10:15:53.428Z,93600.00
2023-05-13T10:16:53.347Z,93696.00
2023-05-13T10:17:53.552Z,88256.00
2023-05-13T10:18:53.685Z,90272.00
2023-05-13T10:19:53.568Z,93760.00
2023-05-13T10:20:54.086Z,94400.00
2023-05-13T11:00:05.377Z,107744.00
2023-05-13T11:01:05.382Z,107424.00
2023-05-13T11:02:05.189Z,107968.00
2023-05-13T11:03:05.176Z,108384.00
2023-05-13T11:04:05.283Z,108736.00
2023-05-13T11:05:05.107Z,109376.00
2023-05-13T11:06:05.120Z,109216.00
2023-05-13T11:07:05.177Z,109728.00
2023-05-13T11:08:05.139Z,110560.00
2023-05-13T11:09:05.070Z,110240.00
2023-05-13T11:10:05.206Z,108032.00
2023-05-13T11:11:05.041Z,29344.00
2023-05-13T11:12:05.035Z,59360.00
2023-05-13T11:13:05.177Z,113792.00
2023-05-13T11:14:06.590Z,110720.00
2023-05-13T11:15:05.203Z,30656.00
2023-05-13T11:16:05.068Z,115648.00
2023-05-13T11:17:05.003Z,90144.00
2023-05-13T11:18:05.003Z,27392.00
2023-05-13T11:19:05.049Z,115360.00
2023-05-13T11:20:04.951Z,113984.00
2023-05-13T11:21:05.530Z,111904.00
2023-05-13T11:22:04.942Z,111552.00
2023-05-13T11:23:04.919Z,110848.00
2023-05-13T11:24:04.908Z,111264.00
2023-05-13T11:25:04.898Z,110976.00
2023-05-13T11:26:04.887Z,110464.00
2023-05-13T11:27:04.875Z,112576.00
2023-05-13T11:28:04.865Z,113472.00
2023-05-13T11:29:04.860Z,113472.00
2023-05-13T11:30:04.857Z,113952.00
2023-05-13T11:31:04.864Z,114336.00
2023-05-13T11:32:04.863Z,114080.00
2023-05-13T11:33:04.881Z,112544.00
2023-05-13T11:34:04.804Z,111808.00
2023-05-13T11:35:04.794Z,112160.00
2023-05-13T11:36:04.783Z,111456.00
2023-05-13T11:37:04.772Z,114304.00
2023-05-13T11:38:04.760Z,103776.00
2023-05-13T11:39:04.751Z,104224.00
2023-05-13T11:40:04.737Z,113504.00
2023-05-13T11:41:04.834Z,119040.00
2023-05-13T11:42:04.717Z,118784.00
2023-05-13T11:43:04.712Z,120192.00
2023-05-13T11:44:04.696Z,121920.00
2023-05-13T11:45:04.687Z,120288.00
2023-05-13T11:46:04.788Z,119232.00
2023-05-13T11:47:04.667Z,116480.00
2023-05-13T11:48:04.748Z,94528.00
2023-05-13T11:49:07.152Z,84352.00
2023-05-13T11:50:04.791Z,116384.00
2023-05-13T11:51:04.633Z,115840.00
2023-05-13T11:52:04.619Z,117824.00
2023-05-13T11:53:04.608Z,118400.00
2023-05-13T11:54:04.592Z,114976.00
2023-05-13T11:55:06.370Z,111328.00
2023-05-13T11:56:04.578Z,109408.00
2023-05-13T11:57:04.568Z,107776.00
2023-05-13T11:58:04.559Z,108704.00
2023-05-13T11:59:04.543Z,109184.00
2023-05-13T12:00:04.532Z,32224.00
2023-05-13T12:01:04.523Z,30560.00
2023-05-13T12:02:04.637Z,39552.00
2023-05-13T12:03:04.659Z,31008.00
2023-05-13T12:04:04.512Z,70496.00
2023-05-13T12:05:04.557Z,112576.00
2023-05-13T12:06:04.471Z,102816.00
2023-05-13T12:07:04.463Z,108864.00
2023-05-13T12:08:04.446Z,109312.00
2023-05-13T12:09:04.460Z,108672.00
2023-05-13T12:10:04.431Z,107328.00
2023-05-13T12:11:04.417Z,107776.00
2023-05-13T12:12:04.403Z,89408.00
2023-05-13T12:13:04.408Z,104928.00
2023-05-13T12:14:04.405Z,87936.00
2023-05-13T12:15:04.382Z,30368.00
2023-05-13T12:16:04.478Z,99680.00
2023-05-13T12:17:04.354Z,96096.00
2023-05-13T12:18:04.378Z,24512.00
2023-05-13T12:19:04.357Z,21376.00
2023-05-13T12:20:05.344Z,22496.00
2023-05-13T12:21:04.319Z,17988.00
2023-05-13T12:22:05.582Z,17016.00
2023-05-13T12:23:04.295Z,16904.00
2023-05-13T12:24:04.276Z,17160.00
2023-05-13T12:25:04.280Z,17308.00
2023-05-13T12:26:04.270Z,18276.00
2023-05-13T12:27:04.248Z,21216.00
2023-05-13T12:28:04.235Z,101152.00
2023-05-13T12:29:04.226Z,101440.00
2023-05-13T12:30:04.215Z,100960.00
2023-05-13T12:31:04.236Z,101344.00
2023-05-13T12:32:04.187Z,101472.00
2023-05-13T12:33:04.220Z,102688.00
2023-05-13T12:34:04.167Z,103456.00
2023-05-13T12:35:04.179Z,65248.00
2023-05-13T12:36:04.181Z,45376.00
2023-05-13T12:37:04.213Z,45536.00
2023-05-13T12:38:04.138Z,33984.00
2023-05-13T12:39:04.114Z,30816.00
2023-05-13T12:40:04.108Z,29696.00
2023-05-13T12:41:04.096Z,29024.00
2023-05-13T12:42:04.081Z,30048.00
2023-05-13T12:43:04.071Z,33440.00
2023-05-13T12:44:06.768Z,31456.00
2023-05-13T12:45:04.054Z,32128.00
2023-05-13T12:46:04.043Z,56576.00
2023-05-13T12:47:04.117Z,100960.00
2023-05-13T12:48:04.106Z,68320.00